Time;durP1;ratioP1;P1;durP2;ratioP2;P2;SDS_P1;SDS_P2;PMS_P1;PMS_P2;Temp;Humidity;BMP_temperature;BMP_pressure;BME280_temperature;BME280_humidity;BME280_pressure;Samples;Min_cycle;Max_cycle;Signal;HPM_P1;HPM_P2
2023/01/02 00:01:22;;;;;;;3.22;2.20;;;16.50;95.20;;;;;;5072280;28;20259;-69
2023/01/02 00:04:12;;;;;;;3.05;2.33;;;16.60;95.30;;;;;;5073073;28;20354;-71
2023/01/02 00:07:00;;;;;;;4.60;2.35;;;16.50;95.20;;;;;;5071896;28;20691;-71
2023/01/02 00:09:48;;;;;;;3.40;2.20;;;16.60;95.30;;;;;;5072178;28;20221;-68
2023/01/02 00:12:36;;;;;;;2.97;2.58;;;16.50;95.20;;;;;;5072689;28;20200;-71
2023/01/02 00:15:24;;;;;;;3.13;2.08;;;16.50;95.20;;;;;;5072204;28;20273;-71
2023/01/02 00:18:12;;;;;;;2.50;2.22;;;16.50;95.20;;;;;;5072211;28;20346;-68
2023/01/02 00:21:03;;;;;;;2.83;1.92;;;16.50;95.20;;;;;;5071877;28;20286;-68
2023/01/02 00:23:51;;;;;;;4.60;2.75;;;16.40;95.20;;;;;;5072698;28;20278;-70
2023/01/02 00:26:39;;;;;;;2.45;2.15;;;16.60;95.40;;;;;;5071758;28;20383;-66
2023/01/02 00:29:27;;;;;;;4.15;2.47;;;16.50;95.40;;;;;;5071449;28;20303;-69
2023/01/02 00:32:15;;;;;;;6.57;2.60;;;16.60;95.40;;;;;;5071799;28;20203;-69
2023/01/02 00:35:04;;;;;;;3.73;3.03;;;16.50;95.30;;;;;;5071557;28;20578;-70
2023/01/02 00:37:53;;;;;;;2.72;2.30;;;16.50;99.90;;;;;;5072501;28;20324;-69
2023/01/02 00:40:42;;;;;;;3.08;2.25;;;16.60;95.20;;;;;;5079420;22;20247;-67
2023/01/02 00:43:30;;;;;;;2.50;2.30;;;16.50;95.30;;;;;;5052418;28;20208;-65
2023/01/02 00:46:18;;;;;;;4.95;3.03;;;16.60;95.30;;;;;;5053188;28;20339;-64
2023/01/02 00:49:06;;;;;;;2.63;2.42;;;16.60;95.40;;;;;;5052570;28;20217;-64
2023/01/02 00:51:54;;;;;;;3.28;2.38;;;16.60;95.30;;;;;;5052663;28;20724;-65
2023/01/02 00:54:43;;;;;;;3.00;2.22;;;16.50;95.50;;;;;;5052230;28;20624;-67
2023/01/02 00:57:32;;;;;;;2.38;2.13;;;16.60;95.40;;;;;;5052627;28;20198;-67
2023/01/02 01:00:20;;;;;;;4.30;2.67;;;16.50;95.40;;;;;;5052059;28;20245;-67
2023/01/02 01:03:11;;;;;;;2.15;1.95;;;16.60;95.60;;;;;;5052234;28;20626;-67
2023/01/02 01:05:59;;;;;;;6.45;2.25;;;16.60;95.50;;;;;;5052180;28;20581;-67
2023/01/02 01:08:47;;;;;;;3.17;2.88;;;16.70;99.90;;;;;;5052074;28;20709;-67
2023/01/02 01:11:36;;;;;;;4.00;2.42;;;16.50;95.60;;;;;;5051858;28;20594;-67
2023/01/02 01:14:24;;;;;;;3.10;2.17;;;16.50;95.40;;;;;;5051792;28;20208;-67
2023/01/02 01:17:12;;;;;;;2.70;2.30;;;16.60;95.60;;;;;;5052184;28;20584;-67
2023/01/02 01:20:00;;;;;;;2.83;2.58;;;16.50;95.50;;;;;;5051567;28;20640;-67
2023/01/02 01:22:49;;;;;;;4.55;2.92;;;16.60;95.50;;;;;;5051781;28;20205;-67
2023/01/02 01:25:37;;;;;;;3.35;2.40;;;16.50;95.50;;;;;;5051639;28;20312;-67
2023/01/02 01:28:26;;;;;;;5.03;3.13;;;16.50;95.40;;;;;;5051775;28;20280;-67
2023/01/02 01:31:16;;;;;;;2.42;2.20;;;16.60;95.50;;;;;;5049793;28;20280;-67
2023/01/02 01:34:04;;;;;;;3.10;2.80;;;16.30;95.50;;;;;;5051952;28;20664;-67
2023/01/02 01:36:52;;;;;;;3.60;2.15;;;16.60;95.60;;;;;;5051476;28;20276;-67
2023/01/02 01:39:40;;;;;;;2.92;2.63;;;16.50;95.70;;;;;;5051166;28;20225;-67
2023/01/02 01:42:32;;;;;;;2.58;2.13;;;16.50;95.60;;;;;;5051853;28;20668;-67
2023/01/02 01:45:21;;;;;;;4.25;2.40;;;16.50;95.50;;;;;;5051684;28;20267;-67
2023/01/02 01:48:15;;;;;;;3.40;2.40;;;16.60;95.70;;;;;;5051487;28;20197;-67
2023/01/02 01:51:03;;;;;;;2.45;2.25;;;16.50;95.50;;;;;;5051125;28;20208;-67
2023/01/02 01:53:53;;;;;;;2.83;2.47;;;16.50;95.50;;;;;;5052132;28;20292;-67
2023/01/02 01:56:47;;;;;;;3.05;2.20;;;16.50;95.50;;;;;;5051526;28;20272;-67
2023/01/02 01:59:35;;;;;;;2.83;2.40;;;16.50;95.50;;;;;;5050897;28;20728;-67
2023/01/02 02:02:27;;;;;;;3.03;2.10;;;16.50;95.40;;;;;;5051186;28;20204;-67
2023/01/02 02:05:19;;;;;;;2.63;2.20;;;16.50;95.50;;;;;;5051458;28;20217;-67
2023/01/02 02:08:15;;;;;;;4.97;2.38;;;16.50;95.40;;;;;;5051573;28;20282;-67
2023/01/02 02:11:04;;;;;;;6.83;2.50;;;16.50;95.40;;;;;;5050151;28;20280;-67
2023/01/02 02:13:58;;;;;;;4.20;2.45;;;16.50;95.40;;;;;;5051911;28;20197;-67
2023/01/02 02:16:53;;;;;;;3.05;2.42;;;16.50;95.40;;;;;;5051190;28;20197;-67
2023/01/02 02:19:58;;;;;;;3.53;2.88;;;16.50;95.40;;;;;;5050236;28;20607;-67
2023/01/02 02:23:13;;;;;;;2.47;2.27;;;16.50;95.40;;;;;;5051346;28;20573;-67
2023/01/02 02:26:23;;;;;;;3.25;2.50;;;16.50;95.30;;;;;;5051388;28;20229;-67
2023/01/02 02:29:38;;;;;;;2.40;2.20;;;16.60;95.30;;;;;;5050957;28;20646;-66
2023/01/02 02:32:37;;;;;;;3.15;2.22;;;16.50;95.50;;;;;;5046536;28;20228;-67
2023/01/02 02:35:37;;;;;;;2.30;2.10;;;16.50;95.20;;;;;;5054808;28;20201;-67
2023/01/02 02:38:37;;;;;;;2.63;2.42;;;16.50;95.30;;;;;;5061278;28;20204;-66
2023/01/02 02:41:33;;;;;;;2.97;2.03;;;16.50;95.30;;;;;;5056003;28;20204;-67
2023/01/02 02:44:29;;;;;;;3.70;2.40;;;16.50;95.20;;;;;;5064486;28;20209;-67
2023/01/02 02:47:26;;;;;;;2.65;2.45;;;16.50;95.30;;;;;;5053245;28;20316;-67
2023/01/02 02:50:23;;;;;;;2.58;2.30;;;16.60;95.30;;;;;;5053582;28;20278;-67
2023/01/02 02:53:15;;;;;;;2.38;2.17;;;16.40;95.20;;;;;;5055645;28;20684;-67
2023/01/02 02:56:07;;;;;;;5.18;2.08;;;16.50;95.30;;;;;;5055548;28;20225;-67
2023/01/02 02:58:56;;;;;;;3.63;2.38;;;16.50;95.20;;;;;;5055488;28;20343;-67
2023/01/02 03:01:44;;;;;;;2.33;2.13;;;16.40;95.20;;;;;;5056408;28;20253;-65
2023/01/02 03:04:32;;;;;;;2.20;2.10;;;15.90;94.90;;;;;;5055833;28;20304;-67
2023/01/02 03:07:31;;;;;;;2.15;1.88;;;16.80;95.40;;;;;;5054965;28;20253;-67
2023/01/02 03:10:26;;;;;;;2.13;1.92;;;16.50;95.20;;;;;;5054267;28;20301;-66
2023/01/02 03:13:21;;;;;;;3.25;2.47;;;16.50;95.20;;;;;;5054680;28;20206;-67
2023/01/02 03:16:12;;;;;;;2.70;2.00;;;16.60;95.20;;;;;;5055003;28;20685;-65
2023/01/02 03:19:05;;;;;;;2.53;2.15;;;16.90;95.40;;;;;;5054381;28;20217;-65
2023/01/02 03:21:59;;;;;;;2.10;2.00;;;16.50;95.20;;;;;;5054016;28;20232;-64
2023/01/02 03:24:51;;;;;;;2.38;1.95;;;16.60;95.30;;;;;;5054341;28;20251;-64
2023/01/02 03:27:43;;;;;;;2.40;2.17;;;16.50;95.10;;;;;;5054284;28;20308;-64
2023/01/02 03:30:34;;;;;;;2.28;2.08;;;16.50;95.20;;;;;;5054792;28;20217;-65
2023/01/02 03:33:26;;;;;;;2.60;2.38;;;16.60;95.20;;;;;;5055850;28;20602;-67
2023/01/02 03:36:20;;;;;;;4.53;2.35;;;16.60;95.20;;;;;;5054039;28;20194;-67
2023/01/02 03:39:12;;;;;;;2.38;2.17;;;16.50;95.10;;;;;;5053886;28;20776;-67
2023/01/02 03:42:04;;;;;;;1.98;1.88;;;16.50;95.10;;;;;;5054389;28;20807;-67
2023/01/02 03:44:58;;;;;;;2.85;2.58;;;16.50;95.10;;;;;;5053951;28;20259;-66
2023/01/02 03:47:54;;;;;;;2.38;2.17;;;16.60;95.20;;;;;;5054500;28;20225;-66
2023/01/02 03:50:47;;;;;;;1.90;1.80;;;16.40;95.10;;;;;;5053988;28;20251;-65
2023/01/02 03:53:39;;;;;;;2.40;2.00;;;16.70;95.20;;;;;;5054783;28;20617;-64
2023/01/02 03:56:36;;;;;;;2.22;1.98;;;16.30;95.00;;;;;;5054001;28;20299;-65
2023/01/02 03:59:36;;;;;;;2.00;1.80;;;16.60;95.20;;;;;;5071269;28;20280;-67
2023/01/02 04:02:31;;;;;;;2.42;2.22;;;16.60;95.20;;;;;;5071436;28;20225;-66
2023/01/02 04:05:23;;;;;;;2.65;2.45;;;16.60;95.20;;;;;;5072532;28;20213;-64
2023/01/02 04:08:17;;;;;;;3.00;2.40;;;16.60;95.20;;;;;;5054575;28;20700;-67
2023/01/02 04:11:07;;;;;;;2.20;2.00;;;16.60;95.20;;;;;;5053670;28;20194;-67
2023/01/02 04:13:59;;;;;;;2.03;1.60;;;16.30;95.00;;;;;;5054767;28;20233;-65
2023/01/02 04:16:50;;;;;;;2.80;2.13;;;16.70;95.20;;;;;;5054094;28;20221;-67
2023/01/02 04:19:43;;;;;;;2.38;2.17;;;16.40;95.10;;;;;;5053477;28;20311;-67
2023/01/02 04:22:43;;;;;;;1.98;1.73;;;16.60;95.10;;;;;;5054270;28;20201;-68
2023/01/02 04:25:37;;;;;;;2.47;2.22;;;16.50;95.10;;;;;;5053678;28;20194;-67
2023/01/02 04:28:29;;;;;;;4.00;2.10;;;16.60;95.10;;;;;;5054091;28;20264;-67
2023/01/02 04:31:20;;;;;;;3.70;2.13;;;16.60;95.20;;;;;;5054268;28;20287;-67
2023/01/02 04:34:13;;;;;;;2.20;2.00;;;16.50;95.10;;;;;;5054490;28;20197;-64
2023/01/02 04:37:01;;;;;;;4.50;2.40;;;16.60;95.20;;;;;;5054622;28;20224;-67
2023/01/02 04:39:50;;;;;;;2.58;2.28;;;16.40;95.10;;;;;;5052991;28;20225;-67
2023/01/02 04:42:38;;;;;;;2.40;2.08;;;16.30;95.00;;;;;;5053250;28;20286;-67
2023/01/02 04:45:26;;;;;;;3.65;2.63;;;16.50;95.10;;;;;;5053674;28;20280;-67
2023/01/02 04:48:14;;;;;;;3.10;2.00;;;16.60;95.20;;;;;;5062131;28;20328;-67
2023/01/02 04:51:04;;;;;;;2.00;1.80;;;16.50;95.40;;;;;;5072162;28;20247;-67
2023/01/02 04:53:53;;;;;;;2.10;1.95;;;16.50;95.10;;;;;;5073238;28;20276;-67
2023/01/02 04:56:41;;;;;;;2.40;2.20;;;16.50;95.10;;;;;;5064789;28;20571;-67
2023/01/02 04:59:29;;;;;;;2.35;1.65;;;17.00;95.40;;;;;;5052718;28;20651;-67
2023/01/02 05:02:17;;;;;;;3.90;2.60;;;16.30;95.00;;;;;;5052576;28;20248;-67
2023/01/02 05:05:07;;;;;;;2.95;2.40;;;16.50;95.10;;;;;;5052539;28;20202;-67
2023/01/02 05:07:58;;;;;;;2.13;1.92;;;16.60;95.10;;;;;;5051951;28;20231;-67
2023/01/02 05:10:46;;;;;;;4.13;2.30;;;16.40;95.10;;;;;;5052079;28;20716;-67
2023/01/02 05:13:34;;;;;;;3.88;2.10;;;16.90;95.30;;;;;;5052626;28;20316;-65
2023/01/02 05:16:22;;;;;;;2.25;1.77;;;16.60;95.10;;;;;;5052101;28;20266;-67
2023/01/02 05:19:11;;;;;;;2.60;2.15;;;16.90;95.30;;;;;;5051625;28;20492;-67
2023/01/02 05:25:08;;;;;;;2.67;2.22;;;16.20;94.90;;;;;;5051870;28;20236;-65
2023/01/02 05:27:56;;;;;;;2.33;1.85;;;16.60;95.10;;;;;;5052498;28;20213;-65
2023/01/02 05:30:44;;;;;;;2.28;2.15;;;16.50;95.10;;;;;;5052294;28;20253;-65
2023/01/02 05:33:32;;;;;;;2.53;2.33;;;16.60;95.20;;;;;;5052878;28;20603;-66
2023/01/02 05:36:20;;;;;;;4.38;2.67;;;16.50;95.10;;;;;;5052174;28;20284;-66
2023/01/02 05:39:08;;;;;;;2.95;2.35;;;16.60;95.10;;;;;;5052519;28;20706;-65
2023/01/02 05:41:58;;;;;;;2.50;2.17;;;16.60;95.10;;;;;;5052088;28;20284;-66
2023/01/02 05:44:46;;;;;;;1.85;1.75;;;16.60;95.10;;;;;;5052521;28;20283;-65
2023/01/02 05:47:34;;;;;;;3.08;2.35;;;16.60;95.10;;;;;;5051315;28;20697;-66
2023/01/02 05:50:22;;;;;;;2.90;2.03;;;16.10;94.90;;;;;;5051550;28;20745;-66
2023/01/02 05:53:10;;;;;;;2.13;1.92;;;16.70;95.20;;;;;;5052349;28;20247;-66
2023/01/02 05:56:04;;;;;;;2.33;1.98;;;16.20;94.90;;;;;;5052703;28;20197;-66
2023/01/02 05:58:54;;;;;;;3.28;1.90;;;16.70;99.90;;;;;;5051969;28;20233;-66
2023/01/02 06:01:42;;;;;;;5.05;2.17;;;16.30;95.00;;;;;;5051627;28;20212;-66
2023/01/02 06:04:30;;;;;;;4.32;2.67;;;16.50;95.00;;;;;;5052325;28;20197;-66
2023/01/02 06:07:18;;;;;;;2.75;1.98;;;16.50;95.00;;;;;;5051352;28;20209;-66
2023/01/02 06:10:08;;;;;;;2.83;2.22;;;16.50;95.00;;;;;;5051128;28;20245;-65
2023/01/02 06:12:56;;;;;;;2.80;2.08;;;16.60;95.00;;;;;;5050740;28;20262;-65
2023/01/02 06:15:45;;;;;;;2.60;2.20;;;16.10;95.20;;;;;;5051118;28;20745;-65
2023/01/02 06:18:34;;;;;;;2.03;1.83;;;16.40;95.00;;;;;;5054971;28;20248;-65
2023/01/02 06:21:23;;;;;;;2.17;1.98;;;16.40;95.00;;;;;;5068424;28;20205;-66
2023/01/02 06:24:11;;;;;;;4.20;2.60;;;16.40;94.90;;;;;;5067446;28;20204;-65
2023/01/02 06:26:59;;;;;;;2.40;2.20;;;16.60;95.10;;;;;;5057542;28;20209;-66
2023/01/02 06:29:47;;;;;;;2.47;2.28;;;16.40;95.00;;;;;;5056365;28;20252;-66
2023/01/02 06:32:36;;;;;;;2.20;2.10;;;16.50;95.00;;;;;;5056672;28;20201;-66
2023/01/02 06:35:24;;;;;;;2.28;2.08;;;16.70;95.10;;;;;;5055693;28;20274;-66
2023/01/02 06:38:12;;;;;;;3.00;2.20;;;17.00;95.20;;;;;;5056086;28;20272;-66
2023/01/02 06:41:02;;;;;;;2.60;1.90;;;16.60;95.00;;;;;;5076851;22;20665;-67
2023/01/02 06:43:50;;;;;;;2.42;2.20;;;16.60;95.00;;;;;;5054493;28;20193;-69
2023/01/02 06:46:38;;;;;;;1.75;1.63;;;16.90;95.20;;;;;;5053809;28;20744;-68
2023/01/02 06:49:28;;;;;;;2.53;1.90;;;16.50;95.00;;;;;;5054190;28;20221;-66
2023/01/02 06:52:16;;;;;;;3.03;1.92;;;16.70;95.10;;;;;;5054399;28;20225;-68
2023/01/02 06:55:05;;;;;;;2.30;2.10;;;16.70;95.10;;;;;;5054098;28;20193;-70
2023/01/02 06:57:53;;;;;;;4.15;2.03;;;16.60;95.00;;;;;;5049041;28;20274;-67
2023/01/02 07:00:41;;;;;;;2.45;1.70;;;17.50;95.40;;;;;;5044217;28;20526;-69
2023/01/02 07:03:30;;;;;;;6.93;2.13;;;16.70;95.10;;;;;;5054054;28;20212;-68
2023/01/02 07:06:21;;;;;;;6.65;2.22;;;16.60;95.50;;;;;;5050028;28;20226;-67
2023/01/02 07:09:09;;;;;;;1.90;1.80;;;16.80;99.90;;;;;;5033978;28;20921;-68
2023/01/02 07:11:58;;;;;;;10.05;2.25;;;16.90;95.30;;;;;;5033485;28;20310;-69
2023/01/02 07:14:46;;;;;;;4.05;2.15;;;17.10;95.30;;;;;;5034022;28;20282;-69
2023/01/02 07:17:34;;;;;;;2.28;2.10;;;17.50;95.40;;;;;;5033538;28;20356;-66
2023/01/02 07:20:22;;;;;;;2.35;1.88;;;17.20;95.10;;;;;;5032788;28;20233;-68
2023/01/02 07:23:11;;;;;;;1.75;1.65;;;17.60;95.10;;;;;;5034373;28;20272;-69
2023/01/02 07:26:01;;;;;;;3.15;1.92;;;17.80;95.10;;;;;;5033864;28;20209;-70
2023/01/02 07:28:49;;;;;;;2.20;2.00;;;17.80;94.70;;;;;;5032210;28;20250;-67
2023/01/02 07:31:37;;;;;;;3.17;2.22;;;17.90;94.70;;;;;;5040932;28;20315;-68
2023/01/02 07:34:25;;;;;;;2.95;1.95;;;17.90;94.50;;;;;;5033119;28;20590;-70
2023/01/02 07:37:13;;;;;;;3.42;2.38;;;18.10;94.40;;;;;;5032768;28;20281;-68
2023/01/02 07:40:03;;;;;;;1.90;1.80;;;18.10;94.20;;;;;;5032300;28;20703;-69
2023/01/02 07:42:51;;;;;;;2.28;1.67;;;18.50;94.20;;;;;;5033967;28;20281;-71
2023/01/02 07:45:39;;;;;;;4.43;1.85;;;18.60;94.10;;;;;;5032715;28;20200;-69
2023/01/02 07:48:36;;;;;;;2.75;2.50;;;18.60;94.00;;;;;;5034084;28;20360;-66
2023/01/02 07:51:24;;;;;;;1.90;1.80;;;18.80;93.80;;;;;;5034130;28;20325;-68
2023/01/02 07:54:14;;;;;;;2.75;2.17;;;18.90;93.80;;;;;;5053311;28;20677;-66
2023/01/02 07:57:04;;;;;;;2.35;2.15;;;17.80;93.10;;;;;;5053206;28;20201;-66
2023/01/02 07:59:52;;;;;;;2.97;2.25;;;19.20;93.60;;;;;;5052757;28;20687;-66
2023/01/02 08:02:40;;;;;;;2.63;1.85;;;19.40;93.60;;;;;;5053859;28;20238;-66
2023/01/02 08:05:28;;;;;;;2.85;2.13;;;19.30;93.40;;;;;;5053299;28;20212;-66
2023/01/02 08:08:16;;;;;;;4.18;2.63;;;19.20;93.20;;;;;;5053609;28;20375;-66
2023/01/02 08:11:06;;;;;;;1.60;1.50;;;19.20;93.10;;;;;;5053288;28;20225;-65
2023/01/02 08:13:55;;;;;;;2.88;2.58;;;19.40;93.10;;;;;;5054061;28;20198;-66
2023/01/02 08:16:43;;;;;;;2.42;1.98;;;19.60;93.20;;;;;;5053725;28;20656;-65
2023/01/02 08:19:31;;;;;;;3.70;1.75;;;19.50;93.20;;;;;;5053186;28;20245;-65
2023/01/02 08:22:19;;;;;;;2.47;2.00;;;19.40;93.00;;;;;;5053624;28;20233;-65
2023/01/02 08:25:09;;;;;;;3.38;1.80;;;19.40;93.00;;;;;;5053449;28;20280;-65
2023/01/02 08:27:57;;;;;;;2.67;2.20;;;19.40;93.00;;;;;;5053329;28;20681;-66
2023/01/02 08:30:46;;;;;;;2.15;1.95;;;19.80;93.20;;;;;;5053656;28;20221;-65
2023/01/02 08:33:34;;;;;;;2.60;2.00;;;19.50;93.00;;;;;;5053593;28;20205;-66
2023/01/02 08:36:22;;;;;;;6.00;2.10;;;19.30;92.90;;;;;;5053342;28;20193;-67
2023/01/02 08:39:10;;;;;;;2.15;1.80;;;19.30;99.90;;;;;;5052714;28;20225;-66
2023/01/02 08:41:58;;;;;;;2.72;1.98;;;19.30;92.90;;;;;;5053151;28;20224;-66
2023/01/02 08:44:46;;;;;;;2.00;1.75;;;19.60;93.00;;;;;;5053358;28;20277;-65
2023/01/02 08:47:35;;;;;;;3.05;1.80;;;19.30;93.00;;;;;;5053256;28;20311;-65
2023/01/02 08:50:23;;;;;;;3.10;1.70;;;19.40;93.10;;;;;;5053165;28;20747;-66
2023/01/02 08:53:11;;;;;;;5.07;2.08;;;19.40;93.10;;;;;;5037087;28;20202;-66
2023/01/02 08:56:21;;;;;;;2.60;2.00;;;19.40;93.10;;;;;;5032759;28;20210;-64
2023/01/02 08:59:11;;;;;;;3.28;1.58;;;19.60;99.90;;;;;;5032439;28;20340;-65
2023/01/02 09:01:59;;;;;;;4.03;2.30;;;19.50;93.10;;;;;;5032585;28;20643;-66
2023/01/02 09:04:48;;;;;;;2.17;2.08;;;19.10;92.80;;;;;;5033161;28;20639;-64
2023/01/02 09:07:36;;;;;;;2.00;1.80;;;19.60;92.90;;;;;;5032652;28;20246;-66
2023/01/02 09:10:25;;;;;;;2.42;2.22;;;19.50;92.70;;;;;;5032636;28;20740;-65
2023/01/02 09:13:13;;;;;;;3.20;2.30;;;19.70;93.10;;;;;;5032586;28;20221;-65
2023/01/02 09:16:01;;;;;;;3.08;1.77;;;19.60;92.70;;;;;;5032654;28;20586;-65
2023/01/02 09:18:50;;;;;;;2.50;2.30;;;19.90;92.80;;;;;;5046516;28;20209;-65
2023/01/02 09:21:39;;;;;;;2.95;2.22;;;19.60;92.60;;;;;;5065352;28;20291;-64
2023/01/02 09:24:27;;;;;;;2.67;1.85;;;19.50;92.50;;;;;;5049615;28;20397;-65
2023/01/02 09:27:15;;;;;;;2.28;2.08;;;19.80;92.50;;;;;;5053769;28;20291;-66
2023/01/02 09:30:04;;;;;;;4.82;2.10;;;20.00;92.60;;;;;;5052493;28;20766;-66
2023/01/02 09:32:52;;;;;;;2.63;2.22;;;19.80;92.50;;;;;;5053569;28;20675;-66
2023/01/02 09:35:40;;;;;;;2.55;2.35;;;19.90;92.60;;;;;;5051257;28;20232;-65
2023/01/02 09:38:30;;;;;;;2.22;1.85;;;20.10;92.60;;;;;;5032813;28;20285;-66
2023/01/02 09:41:27;;;;;;;2.33;1.80;;;19.70;92.50;;;;;;5032946;28;20309;-65
2023/01/02 09:44:19;;;;;;;2.53;1.60;;;19.80;92.50;;;;;;5033470;28;20280;-66
2023/01/02 09:47:14;;;;;;;2.10;1.90;;;19.60;92.40;;;;;;5033208;28;20205;-66
2023/01/02 09:50:04;;;;;;;3.35;1.88;;;19.70;92.50;;;;;;5032228;28;20230;-66
2023/01/02 09:52:57;;;;;;;3.47;2.00;;;19.70;92.50;;;;;;5033259;28;20706;-66
2023/01/02 09:55:53;;;;;;;3.90;2.25;;;19.70;92.60;;;;;;5033420;28;20240;-64
2023/01/02 09:58:50;;;;;;;2.22;2.00;;;19.70;92.60;;;;;;5032416;28;20201;-65
2023/01/02 10:01:51;;;;;;;2.75;1.85;;;19.70;92.70;;;;;;5032719;28;20692;-64
2023/01/02 10:04:53;;;;;;;3.58;2.30;;;19.70;92.70;;;;;;5032421;28;20576;-66
2023/01/02 10:07:47;;;;;;;2.20;1.90;;;19.90;92.70;;;;;;5032227;28;20201;-65
2023/01/02 10:10:40;;;;;;;2.10;1.90;;;19.80;92.60;;;;;;5031961;28;20226;-64
2023/01/02 10:13:34;;;;;;;2.40;2.00;;;19.80;92.50;;;;;;5044598;28;20197;-64
2023/01/02 10:16:45;;;;;;;2.00;1.90;;;20.00;92.50;;;;;;5053588;28;20625;-65
2023/01/02 10:19:42;;;;;;;4.25;2.15;;;20.10;92.50;;;;;;5052185;28;20271;-65
2023/01/02 10:22:36;;;;;;;3.05;2.20;;;20.10;92.40;;;;;;5052424;28;20208;-65
2023/01/02 10:25:29;;;;;;;2.00;1.85;;;20.10;92.30;;;;;;5052681;28;20197;-65
2023/01/02 10:28:27;;;;;;;2.25;2.10;;;20.10;92.30;;;;;;5052994;28;20225;-64
2023/01/02 10:31:20;;;;;;;2.72;2.25;;;20.10;92.20;;;;;;5052247;28;20274;-65
2023/01/02 10:34:14;;;;;;;2.80;1.95;;;20.10;92.20;;;;;;5051768;28;20204;-65
2023/01/02 10:37:02;;;;;;;2.47;2.22;;;20.10;92.20;;;;;;5052599;28;20199;-66
2023/01/02 10:39:55;;;;;;;2.25;2.00;;;19.80;92.00;;;;;;5052226;28;20231;-64
2023/01/02 10:42:43;;;;;;;2.50;2.15;;;20.10;92.10;;;;;;5052575;28;20208;-66
2023/01/02 10:45:33;;;;;;;2.33;2.13;;;19.60;92.00;;;;;;5052637;28;20292;-65
2023/01/02 10:48:26;;;;;;;2.80;2.05;;;20.10;92.20;;;;;;5051626;28;20285;-65
2023/01/02 10:51:16;;;;;;;3.03;2.58;;;20.20;92.20;;;;;;5052927;28;20359;-66
2023/01/02 10:54:05;;;;;;;3.47;2.53;;;19.80;92.10;;;;;;5052328;28;20201;-66
2023/01/02 10:56:56;;;;;;;3.15;2.85;;;20.00;92.10;;;;;;5052508;28;20204;-64
2023/01/02 10:59:44;;;;;;;3.92;2.88;;;20.00;92.20;;;;;;5052136;28;20304;-65
2023/01/02 11:02:38;;;;;;;3.40;2.35;;;19.90;92.20;;;;;;5051944;28;20283;-65
2023/01/02 11:05:29;;;;;;;2.08;1.88;;;19.90;92.20;;;;;;5056256;28;20233;-65
2023/01/02 11:08:20;;;;;;;3.30;2.05;;;19.70;92.20;;;;;;5056223;28;20261;-66
2023/01/02 11:11:13;;;;;;;3.17;2.63;;;20.00;92.40;;;;;;5055624;28;20718;-64
2023/01/02 11:14:07;;;;;;;2.95;2.47;;;19.90;92.40;;;;;;5038452;28;20282;-65
2023/01/02 11:17:03;;;;;;;4.53;2.65;;;19.80;92.30;;;;;;5036521;28;20202;-64
2023/01/02 11:19:54;;;;;;;3.88;2.25;;;20.00;92.30;;;;;;5034959;28;20343;-65
2023/01/02 11:22:43;;;;;;;7.13;2.75;;;20.30;92.50;;;;;;5035087;28;20748;-65
2023/01/02 11:25:38;;;;;;;5.32;2.08;;;20.10;92.30;;;;;;5034766;28;20226;-64
2023/01/02 11:28:28;;;;;;;5.60;2.33;;;20.10;92.10;;;;;;5036052;28;20573;-65
2023/01/02 11:31:17;;;;;;;3.03;2.45;;;20.30;92.20;;;;;;5036183;28;20709;-64
2023/01/02 11:34:17;;;;;;;9.20;2.97;;;20.20;92.20;;;;;;5035816;28;20198;-66
2023/01/02 11:37:15;;;;;;;4.20;2.70;;;19.90;92.00;;;;;;5036357;28;20197;-65
2023/01/02 11:40:06;;;;;;;5.70;2.78;;;20.20;92.10;;;;;;5035826;28;20218;-65
2023/01/02 11:46:08;;;;;;;5.47;2.20;;;20.20;92.10;;;;;;5035003;28;20572;-64
2023/01/02 11:49:02;;;;;;;6.45;2.60;;;20.00;99.90;;;;;;5035891;28;20674;-65
2023/01/02 11:51:55;;;;;;;5.82;2.10;;;20.10;92.00;;;;;;5035724;28;20257;-66
2023/01/02 11:54:50;;;;;;;8.63;2.97;;;20.10;92.00;;;;;;5035617;28;20212;-64
2023/01/02 11:57:45;;;;;;;3.92;3.10;;;20.40;92.10;;;;;;5036189;28;20687;-65
2023/01/02 12:00:39;;;;;;;6.35;2.50;;;20.10;92.00;;;;;;5034914;28;20218;-64
2023/01/02 12:03:29;;;;;;;4.18;2.58;;;20.00;92.00;;;;;;5034916;28;20205;-66
2023/01/02 12:06:20;;;;;;;3.08;2.78;;;20.00;92.10;;;;;;5035580;28;20209;-66
2023/01/02 12:09:11;;;;;;;6.00;2.97;;;19.90;99.90;;;;;;5034805;28;20284;-64
2023/01/02 12:12:15;;;;;;;3.30;2.40;;;20.00;92.00;;;;;;5035291;28;20264;-64
2023/01/02 12:15:45;;;;;;;2.80;2.45;;;20.00;92.10;;;;;;5033943;28;20681;-65
2023/01/02 12:18:49;;;;;;;4.20;2.67;;;20.00;92.20;;;;;;5034712;28;20284;-66
2023/01/02 12:21:46;;;;;;;5.63;2.67;;;19.90;92.10;;;;;;5035029;28;20252;-65
2023/01/02 12:25:01;;;;;;;4.95;3.00;;;20.00;92.20;;;;;;5034133;28;20245;-64
2023/01/02 12:27:56;;;;;;;5.72;2.85;;;20.00;92.10;;;;;;5034691;28;20300;-66
2023/01/02 12:30:52;;;;;;;6.32;2.65;;;20.10;92.20;;;;;;5033823;28;20752;-65
2023/01/02 12:33:48;;;;;;;2.22;2.03;;;20.30;92.20;;;;;;5034876;28;20281;-66
2023/01/02 12:36:49;;;;;;;3.40;2.00;;;20.20;92.00;;;;;;5034159;28;20213;-65
2023/01/02 12:40:02;;;;;;;4.30;2.78;;;20.30;92.00;;;;;;5061430;22;20247;-65
2023/01/02 12:43:04;;;;;;;4.45;2.67;;;20.30;91.90;;;;;;5052991;28;20201;-66
2023/01/02 12:45:59;;;;;;;6.60;2.17;;;20.30;91.90;;;;;;5053038;28;20233;-68
2023/01/02 12:49:02;;;;;;;4.95;2.83;;;20.30;91.90;;;;;;5052487;28;20209;-68
2023/01/02 12:52:00;;;;;;;2.53;2.33;;;20.30;91.80;;;;;;5032515;28;20636;-68
2023/01/02 12:55:04;;;;;;;5.80;2.58;;;20.30;91.80;;;;;;5032590;28;20248;-68
2023/01/02 12:57:58;;;;;;;4.38;2.70;;;20.30;91.80;;;;;;5032151;28;20562;-68
2023/01/02 13:00:58;;;;;;;4.18;2.88;;;20.30;91.70;;;;;;5031135;28;20327;-68
2023/01/02 13:04:01;;;;;;;5.13;2.60;;;20.30;92.00;;;;;;5031571;28;20202;-66
2023/01/02 13:06:53;;;;;;;4.45;2.40;;;20.30;91.70;;;;;;5031590;28;20201;-69
2023/01/02 13:09:43;;;;;;;9.65;2.70;;;20.30;91.80;;;;;;5031390;28;20758;-68
2023/01/02 13:12:33;;;;;;;2.78;2.17;;;20.20;91.70;;;;;;5033326;28;20383;-66
2023/01/02 13:15:25;;;;;;;8.02;2.90;;;20.20;91.70;;;;;;5031538;28;20320;-67
2023/01/02 13:18:20;;;;;;;2.83;2.05;;;20.20;91.70;;;;;;5030810;28;20194;-66
2023/01/02 13:21:12;;;;;;;2.63;2.30;;;20.00;91.70;;;;;;5031160;28;20657;-66
2023/01/02 13:24:02;;;;;;;8.00;3.58;;;20.10;91.80;;;;;;5031238;28;20340;-66
2023/01/02 13:26:51;;;;;;;2.60;2.40;;;20.10;91.90;;;;;;5031321;28;20252;-66
2023/01/02 13:29:44;;;;;;;3.97;2.85;;;20.10;92.00;;;;;;5030110;28;20308;-68
2023/01/02 13:32:32;;;;;;;4.40;3.15;;;20.10;92.10;;;;;;5031267;28;20218;-68
2023/01/02 13:35:22;;;;;;;2.90;2.50;;;20.10;92.10;;;;;;5030458;28;20206;-68
2023/01/02 13:38:14;;;;;;;3.08;2.78;;;20.10;92.10;;;;;;5031461;28;20284;-66
2023/01/02 13:41:02;;;;;;;3.55;2.50;;;20.10;92.00;;;;;;5030593;28;20229;-67
2023/01/02 13:43:53;;;;;;;3.83;2.63;;;20.20;92.00;;;;;;5030448;28;20264;-68
2023/01/02 13:46:42;;;;;;;4.07;2.65;;;20.20;92.00;;;;;;5032059;28;20264;-68
2023/01/02 13:49:55;;;;;;;2.30;2.10;;;20.20;91.90;;;;;;5031552;28;20224;-66
2023/01/02 13:53:01;;;;;;;5.05;2.38;;;20.30;91.90;;;;;;5030160;28;20709;-68
2023/01/02 13:56:08;;;;;;;3.03;2.33;;;20.30;91.80;;;;;;5032003;28;20686;-68
2023/01/02 13:59:01;;;;;;;6.10;2.70;;;20.30;91.80;;;;;;5031938;28;20194;-68
2023/01/02 14:02:15;;;;;;;2.72;2.40;;;20.30;91.70;;;;;;5031646;28;20194;-68
2023/01/02 14:05:37;;;;;;;5.05;2.22;;;20.30;91.70;;;;;;5031185;28;20212;-68
2023/01/02 14:08:28;;;;;;;4.57;2.50;;;20.30;91.70;;;;;;5030027;28;20202;-68
2023/01/02 14:11:25;;;;;;;4.50;2.17;;;20.30;91.70;;;;;;5031775;28;20712;-68
2023/01/02 14:14:18;;;;;;;4.95;2.78;;;20.30;91.70;;;;;;5030807;28;20221;-68
2023/01/02 14:17:15;;;;;;;4.68;2.70;;;20.30;91.80;;;;;;5031454;28;20295;-68
2023/01/02 14:20:21;;;;;;;3.80;2.00;;;20.30;91.70;;;;;;5030619;28;20218;-68
2023/01/02 14:23:24;;;;;;;3.65;2.17;;;20.30;91.80;;;;;;5030947;28;20679;-68
2023/01/02 14:26:24;;;;;;;6.95;2.30;;;20.30;91.80;;;;;;5031359;28;20640;-68
2023/01/02 14:29:16;;;;;;;5.63;2.20;;;20.20;91.70;;;;;;5030359;28;20285;-68
2023/01/02 14:32:07;;;;;;;7.25;3.28;;;20.20;91.70;;;;;;5031329;28;20217;-67
2023/01/02 14:34:57;;;;;;;5.18;2.25;;;20.10;91.80;;;;;;5032142;28;20220;-67
2023/01/02 14:37:48;;;;;;;4.90;2.22;;;20.10;91.80;;;;;;5031730;28;20194;-68
2023/01/02 14:40:38;;;;;;;4.28;2.13;;;20.10;91.90;;;;;;5034274;28;20257;-68
2023/01/02 14:43:34;;;;;;;3.25;2.00;;;20.10;92.00;;;;;;5035230;28;20202;-68
2023/01/02 14:46:25;;;;;;;7.15;2.08;;;20.10;92.00;;;;;;5035073;28;20237;-68
2023/01/02 14:49:18;;;;;;;3.72;2.45;;;20.20;92.00;;;;;;5034923;28;20225;-67
2023/01/02 14:52:20;;;;;;;4.50;2.40;;;20.20;91.90;;;;;;5034846;28;20590;-68
2023/01/02 14:55:14;;;;;;;6.63;2.20;;;20.20;91.80;;;;;;5035175;28;20328;-68
2023/01/02 14:58:03;;;;;;;4.85;2.47;;;20.30;91.90;;;;;;5033694;28;20245;-67
2023/01/02 15:00:55;;;;;;;4.32;1.75;;;20.40;91.80;;;;;;5034474;28;20720;-67
2023/01/02 15:03:57;;;;;;;2.47;2.28;;;20.30;91.80;;;;;;5034949;28;20202;-67